Time;durP1;ratioP1;P1;durP2;ratioP2;P2;SDS_P1;SDS_P2;PMS_P1;PMS_P2;Temp;Humidity;BMP_temperature;BMP_pressure;BME280_temperature;BME280_humidity;BME280_pressure;Samples;Min_cycle;Max_cycle;Signal;HPM_P1;HPM_P2
2024/03/26 00:00:40;;;;;;;5.97;1.80;;;;;;;;;;5047521;28;20110;-59
2024/03/26 00:03:07;;;;;;;6.82;2.30;;;;;;;;;;5047285;28;20033;-58
2024/03/26 00:05:33;;;;;;;3.95;1.80;;;;;;;;;;5029661;28;20041;-57
2024/03/26 00:07:59;;;;;;;4.88;2.30;;;;;;;;;;5047644;28;20044;-58
2024/03/26 00:10:25;;;;;;;8.65;2.20;;;;;;;;;;5046487;28;20055;-53
2024/03/26 00:12:51;;;;;;;5.93;2.30;;;;;;;;;;5047405;28;20057;-58
2024/03/26 00:15:16;;;;;;;7.82;2.05;;;;;;;;;;5047269;28;20063;-56
2024/03/26 00:17:42;;;;;;;5.72;2.08;;;;;;;;;;5045907;28;20048;-56
2024/03/26 00:20:08;;;;;;;7.07;1.90;;;;;;;;;;5046080;28;20045;-56
2024/03/26 00:22:34;;;;;;;4.57;1.98;;;;;;;;;;5046364;28;20120;-57
2024/03/26 00:24:59;;;;;;;5.20;2.42;;;;;;;;;;5046990;28;20118;-55
2024/03/26 00:27:25;;;;;;;6.13;2.28;;;;;;;;;;5062496;28;20077;-55
2024/03/26 00:29:51;;;;;;;17.73;2.83;;;;;;;;;;5046923;28;20041;-57
2024/03/26 00:32:17;;;;;;;8.95;2.90;;;;;;;;;;5029319;28;20037;-54
2024/03/26 00:34:42;;;;;;;9.90;2.78;;;;;;;;;;5045744;28;20033;-57
2024/03/26 00:37:09;;;;;;;7.15;2.90;;;;;;;;;;5046652;28;20062;-58
2024/03/26 00:39:34;;;;;;;8.85;2.85;;;;;;;;;;5045641;28;20033;-59
2024/03/26 00:42:00;;;;;;;8.05;2.63;;;;;;;;;;5047329;28;20040;-56
2024/03/26 00:44:25;;;;;;;7.03;2.70;;;;;;;;;;5039497;28;20474;-56
2024/03/26 00:46:51;;;;;;;7.25;3.55;;;;;;;;;;5067156;28;20108;-57
2024/03/26 00:49:17;;;;;;;6.03;3.20;;;;;;;;;;5065013;28;20840;-59
2024/03/26 00:51:44;;;;;;;8.10;3.78;;;;;;;;;;5066529;28;20039;-59
2024/03/26 00:54:10;;;;;;;9.85;4.00;;;;;;;;;;5059110;28;20048;-56
2024/03/26 00:56:36;;;;;;;12.00;3.30;;;;;;;;;;5045220;28;20068;-58
2024/03/26 00:59:02;;;;;;;6.28;3.13;;;;;;;;;;5046651;28;20071;-56
2024/03/26 01:01:28;;;;;;;11.48;3.30;;;;;;;;;;5045939;28;20060;-58
2024/03/26 01:03:54;;;;;;;9.68;3.85;;;;;;;;;;5061812;28;20123;-54
2024/03/26 01:06:20;;;;;;;7.15;3.33;;;;;;;;;;5060906;28;20156;-57
2024/03/26 01:08:46;;;;;;;7.78;3.40;;;;;;;;;;5046385;28;20251;-57
2024/03/26 01:11:13;;;;;;;5.95;2.45;;;;;;;;;;5046759;28;20033;-55
2024/03/26 01:13:40;;;;;;;9.48;3.60;;;;;;;;;;5068305;28;20495;-57
2024/03/26 01:16:06;;;;;;;6.72;2.97;;;;;;;;;;5049173;28;20036;-57
2024/03/26 01:18:43;;;;;;;4.93;2.55;;;;;;;;;;5046311;28;20040;-58
2024/03/26 01:21:08;;;;;;;7.47;3.10;;;;;;;;;;5046352;28;20029;-55
2024/03/26 01:23:34;;;;;;;8.57;3.10;;;;;;;;;;5046103;28;20033;-58
2024/03/26 01:26:00;;;;;;;5.75;3.03;;;;;;;;;;5044523;28;20033;-55
2024/03/26 01:28:26;;;;;;;7.68;2.80;;;;;;;;;;5044419;28;20048;-55
2024/03/26 01:30:51;;;;;;;6.97;3.05;;;;;;;;;;5046261;28;20116;-59
2024/03/26 01:33:17;;;;;;;6.38;2.92;;;;;;;;;;5045123;28;20119;-57
2024/03/26 01:35:50;;;;;;;6.32;3.42;;;;;;;;;;5045814;28;20041;-58
2024/03/26 01:38:16;;;;;;;7.78;2.58;;;;;;;;;;5045998;28;20088;-54
2024/03/26 01:40:41;;;;;;;5.93;3.05;;;;;;;;;;5045726;28;20040;-57
2024/03/26 01:43:07;;;;;;;9.40;2.70;;;;;;;;;;5045934;28;20037;-57
2024/03/26 01:45:33;;;;;;;6.20;2.90;;;;;;;;;;5044138;28;20044;-56
2024/03/26 01:47:58;;;;;;;6.55;2.50;;;;;;;;;;5045765;28;20108;-57
2024/03/26 01:50:24;;;;;;;10.07;3.97;;;;;;;;;;5063559;28;20151;-57
2024/03/26 01:52:50;;;;;;;5.78;2.53;;;;;;;;;;5064111;28;20032;-57
2024/03/26 01:55:17;;;;;;;5.30;2.92;;;;;;;;;;5065442;28;20089;-54
2024/03/26 01:57:44;;;;;;;4.97;2.63;;;;;;;;;;5046750;28;20075;-56
2024/03/26 02:00:10;;;;;;;6.63;2.70;;;;;;;;;;5043920;28;20129;-55
2024/03/26 02:02:38;;;;;;;6.38;2.92;;;;;;;;;;5043940;28;20044;-57
2024/03/26 02:05:04;;;;;;;6.10;2.38;;;;;;;;;;5045679;28;20032;-59
2024/03/26 02:07:30;;;;;;;5.10;3.20;;;;;;;;;;5044088;28;20032;-59
2024/03/26 02:09:56;;;;;;;4.07;2.50;;;;;;;;;;5044523;28;20045;-59
2024/03/26 02:12:22;;;;;;;6.00;2.72;;;;;;;;;;5044396;28;20079;-58
2024/03/26 02:14:48;;;;;;;5.88;2.95;;;;;;;;;;5027775;28;20029;-57
2024/03/26 02:17:13;;;;;;;5.55;2.75;;;;;;;;;;5061093;28;20036;-56
2024/03/26 02:19:39;;;;;;;9.27;3.10;;;;;;;;;;5061141;28;20143;-58
2024/03/26 02:22:05;;;;;;;7.78;3.10;;;;;;;;;;5046232;28;20037;-57
2024/03/26 02:24:31;;;;;;;5.57;2.72;;;;;;;;;;5044727;28;20029;-58
2024/03/26 02:26:58;;;;;;;7.40;2.85;;;;;;;;;;5044186;28;20037;-56
2024/03/26 02:29:23;;;;;;;5.32;2.95;;;;;;;;;;5061435;28;20063;-57
2024/03/26 02:31:49;;;;;;;7.28;3.20;;;;;;;;;;5044725;28;20505;-58
2024/03/26 02:34:15;;;;;;;5.70;2.80;;;;;;;;;;5044578;28;20114;-59
2024/03/26 02:36:40;;;;;;;5.82;2.90;;;;;;;;;;5045549;28;20133;-59
2024/03/26 02:39:06;;;;;;;4.90;2.35;;;;;;;;;;5044585;28;20041;-58
2024/03/26 02:41:32;;;;;;;10.27;3.22;;;;;;;;;;5044340;28;20107;-56
2024/03/26 02:43:58;;;;;;;10.55;3.35;;;;;;;;;;5027504;28;20799;-56
2024/03/26 02:46:23;;;;;;;9.50;2.80;;;;;;;;;;5044539;28;20036;-55
2024/03/26 02:48:49;;;;;;;5.32;3.25;;;;;;;;;;5052382;28;20628;-53
2024/03/26 02:51:15;;;;;;;8.75;3.35;;;;;;;;;;5068710;28;20507;-57
2024/03/26 02:53:40;;;;;;;8.63;3.50;;;;;;;;;;5067556;28;20575;-55
2024/03/26 02:56:06;;;;;;;8.65;3.78;;;;;;;;;;5061023;28;20429;-57
2024/03/26 02:58:31;;;;;;;8.30;3.28;;;;;;;;;;5064284;28;20037;-57
2024/03/26 03:01:05;;;;;;;6.75;2.83;;;;;;;;;;5047708;28;20079;-55
2024/03/26 03:03:31;;;;;;;6.68;3.38;;;;;;;;;;5047672;28;20029;-57
2024/03/26 03:05:56;;;;;;;5.85;3.20;;;;;;;;;;5047544;28;20169;-57
2024/03/26 03:08:22;;;;;;;7.53;3.70;;;;;;;;;;5049227;28;20504;-58
2024/03/26 03:10:47;;;;;;;7.38;3.40;;;;;;;;;;5047606;28;20044;-57
2024/03/26 03:13:13;;;;;;;7.85;3.53;;;;;;;;;;5047702;28;20043;-60
2024/03/26 03:15:39;;;;;;;7.78;3.75;;;;;;;;;;5030991;28;20051;-58
2024/03/26 03:18:05;;;;;;;10.02;3.28;;;;;;;;;;5046870;28;20036;-59
2024/03/26 03:20:31;;;;;;;9.23;3.80;;;;;;;;;;5048403;28;20037;-56
2024/03/26 03:22:57;;;;;;;6.95;3.28;;;;;;;;;;5047155;28;20025;-57
2024/03/26 03:25:23;;;;;;;9.80;3.75;;;;;;;;;;5046951;28;20094;-57
2024/03/26 03:27:48;;;;;;;7.40;3.53;;;;;;;;;;5048101;28;20036;-59
2024/03/26 03:30:14;;;;;;;11.75;3.92;;;;;;;;;;5048186;28;20824;-59
2024/03/26 03:32:40;;;;;;;7.47;3.75;;;;;;;;;;5063706;28;20037;-58
2024/03/26 03:35:06;;;;;;;9.55;4.22;;;;;;;;;;5048274;28;20480;-55
2024/03/26 03:37:31;;;;;;;6.88;3.70;;;;;;;;;;5063249;28;20637;-58
2024/03/26 03:39:57;;;;;;;16.70;5.10;;;;;;;;;;5047847;28;20044;-56
2024/03/26 03:42:23;;;;;;;9.90;3.88;;;;;;;;;;5046483;28;20033;-59
2024/03/26 03:44:49;;;;;;;8.75;3.75;;;;;;;;;;5062928;28;20037;-61
2024/03/26 03:47:14;;;;;;;10.82;3.97;;;;;;;;;;5047895;28;20124;-56
2024/03/26 03:49:40;;;;;;;8.30;4.50;;;;;;;;;;5060004;28;20036;-55
2024/03/26 03:52:06;;;;;;;9.38;4.00;;;;;;;;;;5051584;28;20160;-56
2024/03/26 03:54:31;;;;;;;8.85;3.78;;;;;;;;;;5088001;28;20779;-59
2024/03/26 03:56:57;;;;;;;7.60;3.80;;;;;;;;;;5088053;28;20043;-60
2024/03/26 03:59:23;;;;;;;12.77;4.00;;;;;;;;;;5054357;28;20377;-58
2024/03/26 04:01:49;;;;;;;6.55;3.55;;;;;;;;;;5046381;28;20045;-54
2024/03/26 04:04:18;;;;;;;10.75;4.35;;;;;;;;;;5046291;28;20798;-60
2024/03/26 04:06:45;;;;;;;7.43;3.88;;;;;;;;;;5046474;28;20033;-59
2024/03/26 04:09:10;;;;;;;6.68;3.80;;;;;;;;;;5048140;28;20736;-60
2024/03/26 04:11:36;;;;;;;5.57;3.53;;;;;;;;;;5047864;28;20090;-60
2024/03/26 04:14:02;;;;;;;11.32;4.07;;;;;;;;;;5062374;28;20065;-60
2024/03/26 04:16:28;;;;;;;7.50;4.18;;;;;;;;;;5046529;28;20029;-61
2024/03/26 04:18:53;;;;;;;9.18;4.03;;;;;;;;;;5045860;28;20044;-60
2024/03/26 04:21:19;;;;;;;7.45;3.55;;;;;;;;;;5062403;28;20052;-60
2024/03/26 04:23:47;;;;;;;8.63;3.35;;;;;;;;;;5047392;28;20025;-58
2024/03/26 04:26:12;;;;;;;7.53;3.50;;;;;;;;;;5060672;28;20075;-58
2024/03/26 04:28:38;;;;;;;7.00;3.55;;;;;;;;;;5063203;28;20157;-60
2024/03/26 04:31:04;;;;;;;7.30;3.47;;;;;;;;;;5062433;28;20120;-57
2024/03/26 04:33:30;;;;;;;7.38;3.80;;;;;;;;;;5055379;28;20044;-58
2024/03/26 04:35:56;;;;;;;8.05;3.78;;;;;;;;;;5074309;28;20059;-59
2024/03/26 04:38:22;;;;;;;9.05;4.55;;;;;;;;;;5087436;28;20073;-58
2024/03/26 04:40:48;;;;;;;7.07;3.28;;;;;;;;;;5034623;28;20032;-60
2024/03/26 04:43:13;;;;;;;7.43;3.40;;;;;;;;;;5049048;28;20427;-59
2024/03/26 04:45:39;;;;;;;8.77;3.70;;;;;;;;;;5066763;28;20036;-61
2024/03/26 04:48:05;;;;;;;6.15;2.90;;;;;;;;;;5066732;28;20073;-62
2024/03/26 04:50:31;;;;;;;5.70;3.22;;;;;;;;;;5053561;28;20045;-59
2024/03/26 04:52:57;;;;;;;6.25;3.45;;;;;;;;;;5059299;28;20064;-59
2024/03/26 04:55:23;;;;;;;8.88;3.40;;;;;;;;;;5064937;28;20393;-60
2024/03/26 04:57:48;;;;;;;6.47;3.38;;;;;;;;;;5066211;28;20082;-51
2024/03/26 05:00:15;;;;;;;9.40;3.40;;;;;;;;;;5057715;28;20578;-51
2024/03/26 05:02:41;;;;;;;10.82;3.45;;;;;;;;;;5061446;28;20136;-49
2024/03/26 05:05:07;;;;;;;7.10;3.10;;;;;;;;;;5044908;28;20795;-47
2024/03/26 05:07:33;;;;;;;5.13;2.80;;;;;;;;;;5068009;28;20081;-49
2024/03/26 05:09:59;;;;;;;10.57;4.18;;;;;;;;;;5063391;28;20040;-49
2024/03/26 05:12:25;;;;;;;6.03;3.42;;;;;;;;;;5046248;28;20152;-51
2024/03/26 05:14:50;;;;;;;7.75;3.80;;;;;;;;;;5045655;28;20128;-50
2024/03/26 05:17:16;;;;;;;12.60;3.83;;;;;;;;;;5060847;28;20052;-50
2024/03/26 05:19:42;;;;;;;10.02;4.35;;;;;;;;;;5044412;28;20048;-50
2024/03/26 05:22:07;;;;;;;11.13;4.50;;;;;;;;;;5044188;28;20037;-52
2024/03/26 05:24:34;;;;;;;15.68;4.15;;;;;;;;;;5044602;28;20036;-50
2024/03/26 05:27:00;;;;;;;7.20;4.13;;;;;;;;;;5061265;28;20036;-48
2024/03/26 05:29:26;;;;;;;8.65;4.13;;;;;;;;;;5044527;28;20048;-54
2024/03/26 05:31:51;;;;;;;8.10;3.92;;;;;;;;;;5044104;28;20516;-50
2024/03/26 05:34:17;;;;;;;15.00;4.60;;;;;;;;;;5055696;28;20123;-48
2024/03/26 05:36:43;;;;;;;13.07;4.15;;;;;;;;;;5070713;28;20040;-47
2024/03/26 05:39:11;;;;;;;11.32;3.83;;;;;;;;;;5054241;28;20040;-53
2024/03/26 05:41:39;;;;;;;10.20;3.95;;;;;;;;;;5059975;28;20128;-48
2024/03/26 05:44:05;;;;;;;8.93;3.50;;;;;;;;;;5070774;28;20057;-49
2024/03/26 05:46:31;;;;;;;9.02;3.55;;;;;;;;;;5080767;28;20024;-51
2024/03/26 05:48:57;;;;;;;9.77;3.40;;;;;;;;;;5077135;28;20047;-53
2024/03/26 05:51:23;;;;;;;9.45;4.13;;;;;;;;;;5051305;28;20036;-51
2024/03/26 05:53:49;;;;;;;9.98;3.70;;;;;;;;;;5043926;28;20834;-51
2024/03/26 05:56:15;;;;;;;8.93;3.35;;;;;;;;;;5045773;28;20037;-48
2024/03/26 05:58:40;;;;;;;8.57;3.83;;;;;;;;;;5065100;28;20028;-47
2024/03/26 06:01:06;;;;;;;9.57;2.85;;;;;;;;;;5072791;28;20029;-49
2024/03/26 06:03:32;;;;;;;6.63;2.75;;;;;;;;;;5057191;28;20708;-46
2024/03/26 06:05:59;;;;;;;8.75;3.08;;;;;;;;;;5074174;28;20523;-47
2024/03/26 06:08:24;;;;;;;8.80;3.22;;;;;;;;;;5071886;28;20110;-48
2024/03/26 06:10:50;;;;;;;7.80;3.55;;;;;;;;;;5065719;28;20044;-47
2024/03/26 06:13:16;;;;;;;11.25;3.20;;;;;;;;;;5053005;28;20078;-50
2024/03/26 06:15:42;;;;;;;8.85;3.35;;;;;;;;;;5044176;28;20154;-48
2024/03/26 06:18:08;;;;;;;11.40;2.75;;;;;;;;;;5045563;28;20037;-51
2024/03/26 06:20:34;;;;;;;8.82;3.15;;;;;;;;;;5066831;28;20090;-49
2024/03/26 06:22:59;;;;;;;12.68;3.20;;;;;;;;;;5077448;28;20032;-49
2024/03/26 06:25:25;;;;;;;6.80;3.10;;;;;;;;;;5077463;28;20090;-50
2024/03/26 06:27:52;;;;;;;5.78;3.10;;;;;;;;;;5077322;28;20032;-49
2024/03/26 06:30:18;;;;;;;9.15;3.20;;;;;;;;;;5077554;28;20151;-49
2024/03/26 06:32:44;;;;;;;14.70;3.40;;;;;;;;;;5071997;28;20037;-49
2024/03/26 06:35:11;;;;;;;10.63;2.35;;;;;;;;;;5047601;28;20037;-51
2024/03/26 06:37:37;;;;;;;19.02;3.35;;;;;;;;;;5031134;28;20037;-48
2024/03/26 06:40:03;;;;;;;10.35;3.20;;;;;;;;;;5047577;28;20045;-49
2024/03/26 06:42:29;;;;;;;11.43;3.30;;;;;;;;;;5063870;28;20846;-47
2024/03/26 06:44:55;;;;;;;9.52;2.70;;;;;;;;;;5047801;28;20047;-49
2024/03/26 06:47:21;;;;;;;6.63;3.13;;;;;;;;;;5047861;28;20037;-48
2024/03/26 06:49:47;;;;;;;8.98;2.97;;;;;;;;;;5064526;28;20060;-45
2024/03/26 06:52:13;;;;;;;11.95;2.28;;;;;;;;;;5047089;28;20432;-52
2024/03/26 06:54:41;;;;;;;10.10;3.08;;;;;;;;;;5048570;28;20767;-50
2024/03/26 06:57:06;;;;;;;9.35;2.60;;;;;;;;;;5048637;28;20064;-54
2024/03/26 06:59:32;;;;;;;9.70;3.13;;;;;;;;;;5047217;28;20033;-50
2024/03/26 07:02:03;;;;;;;9.93;2.60;;;;;;;;;;5048840;28;20037;-52
2024/03/26 07:04:33;;;;;;;18.98;6.22;;;;;;;;;;5047633;28;20036;-48
2024/03/26 07:06:59;;;;;;;;;;;;;;;;;;5031041;28;20044;-46
2024/03/26 07:09:24;;;;;;;11.35;4.18;;;;;;;;;;5048839;28;20749;-49
2024/03/26 07:11:50;;;;;;;9.68;2.72;;;;;;;;;;5064664;28;20033;-51
2024/03/26 07:14:19;;;;;;;14.40;3.05;;;;;;;;;;5064412;28;20110;-48
2024/03/26 07:16:45;;;;;;;7.57;2.70;;;;;;;;;;5064198;28;20087;-48
2024/03/26 07:19:12;;;;;;;8.75;2.47;;;;;;;;;;5063571;28;20048;-51
2024/03/26 07:21:38;;;;;;;12.48;3.47;;;;;;;;;;5047179;28;20041;-47
2024/03/26 07:24:05;;;;;;;4.68;2.30;;;;;;;;;;5047257;28;20056;-47
2024/03/26 07:26:31;;;;;;;7.28;2.90;;;;;;;;;;5072059;28;20117;-49
2024/03/26 07:28:57;;;;;;;10.32;2.78;;;;;;;;;;5088813;28;20503;-50
2024/03/26 07:31:22;;;;;;;6.30;2.25;;;;;;;;;;5082902;28;20040;-49
2024/03/26 07:33:49;;;;;;;7.75;2.35;;;;;;;;;;5078212;28;20126;-51
2024/03/26 07:36:14;;;;;;;22.02;8.80;;;;;;;;;;5074288;28;20034;-50
2024/03/26 07:38:40;;;;;;;10.52;3.97;;;;;;;;;;5068535;28;20044;-55
2024/03/26 07:41:07;;;;;;;5.82;2.35;;;;;;;;;;5052670;28;20050;-54
2024/03/26 07:43:33;;;;;;;5.72;2.88;;;;;;;;;;5080583;28;20055;-50
2024/03/26 07:45:58;;;;;;;5.75;2.33;;;;;;;;;;5066042;28;20048;-52
2024/03/26 07:48:24;;;;;;;8.73;3.30;;;;;;;;;;5048969;28;20033;-54
2024/03/26 07:50:50;;;;;;;5.32;2.33;;;;;;;;;;5066732;28;20032;-49
2024/03/26 07:53:16;;;;;;;5.70;2.38;;;;;;;;;;5067609;28;20098;-50
2024/03/26 07:55:41;;;;;;;8.50;3.60;;;;;;;;;;5066272;28;20131;-51
2024/03/26 07:58:07;;;;;;;7.32;2.97;;;;;;;;;;5047425;28;20044;-50
2024/03/26 08:00:33;;;;;;;5.05;2.40;;;;;;;;;;5046394;28;20048;-49
2024/03/26 08:02:59;;;;;;;7.78;2.38;;;;;;;;;;5045970;28;20078;-50
2024/03/26 08:05:25;;;;;;;6.25;2.60;;;;;;;;;;5088813;28;20028;-52
2024/03/26 08:07:55;;;;;;;4.40;1.77;;;;;;;;;;5054918;28;20416;-50
2024/03/26 08:10:21;;;;;;;5.07;1.90;;;;;;;;;;5047523;28;20044;-52
2024/03/26 08:12:46;;;;;;;5.28;1.90;;;;;;;;;;5047237;28;20703;-50
2024/03/26 08:15:12;;;;;;;4.40;1.73;;;;;;;;;;5062688;28;20056;-47
2024/03/26 08:17:38;;;;;;;6.45;2.45;;;;;;;;;;5054950;28;20499;-52
2024/03/26 08:20:05;;;;;;;4.03;1.63;;;;;;;;;;5045717;28;20449;-51
2024/03/26 08:22:32;;;;;;;2.65;1.85;;;;;;;;;;5045554;28;20107;-48
2024/03/26 08:24:57;;;;;;;7.03;1.63;;;;;;;;;;5046941;28;20636;-51
2024/03/26 08:27:23;;;;;;;4.43;1.65;;;;;;;;;;5046728;28;20115;-51
2024/03/26 08:29:51;;;;;;;5.82;2.05;;;;;;;;;;5046788;28;20051;-48
2024/03/26 08:32:16;;;;;;;4.65;1.52;;;;;;;;;;5062142;28;20029;-46
2024/03/26 08:34:42;;;;;;;7.38;1.60;;;;;;;;;;5047272;28;20041;-50
2024/03/26 08:37:07;;;;;;;4.60;1.73;;;;;;;;;;5066467;28;20040;-46
2024/03/26 08:39:33;;;;;;;3.20;1.38;;;;;;;;;;5084192;28;20040;-47
2024/03/26 08:41:59;;;;;;;4.78;1.52;;;;;;;;;;5085618;28;20116;-50
2024/03/26 08:44:25;;;;;;;3.58;1.50;;;;;;;;;;5077163;28;20395;-50
2024/03/26 08:46:50;;;;;;;3.92;1.60;;;;;;;;;;5048697;28;20032;-51
2024/03/26 08:49:16;;;;;;;4.07;1.67;;;;;;;;;;5059303;28;20182;-49
2024/03/26 08:51:41;;;;;;;5.25;2.00;;;;;;;;;;5067081;28;20452;-51
2024/03/26 08:54:07;;;;;;;10.63;2.47;;;;;;;;;;5065284;28;20044;-50
2024/03/26 08:56:33;;;;;;;3.03;1.60;;;;;;;;;;5066743;28;20040;-51
2024/03/26 08:58:58;;;;;;;3.92;1.60;;;;;;;;;;5055493;28;20049;-52
2024/03/26 09:01:24;;;;;;;7.22;3.30;;;;;;;;;;5045632;28;20116;-49
2024/03/26 09:03:50;;;;;;;4.22;2.05;;;;;;;;;;5045528;28;20037;-54
2024/03/26 09:06:16;;;;;;;6.65;1.55;;;;;;;;;;5045364;28;20412;-51
2024/03/26 09:08:42;;;;;;;3.17;1.55;;;;;;;;;;5046111;28;20120;-47
2024/03/26 09:11:08;;;;;;;2.50;1.38;;;;;;;;;;5044855;28;20037;-48
2024/03/26 09:13:40;;;;;;;4.70;1.48;;;;;;;;;;5044557;28;20128;-52
2024/03/26 09:16:07;;;;;;;4.75;1.40;;;;;;;;;;5046143;28;20033;-48
2024/03/26 09:18:33;;;;;;;7.05;1.60;;;;;;;;;;5046369;28;20531;-47
2024/03/26 09:20:58;;;;;;;5.18;1.50;;;;;;;;;;5064977;28;20032;-49
2024/03/26 09:23:24;;;;;;;3.90;1.90;;;;;;;;;;5064716;28;20067;-52
2024/03/26 09:25:50;;;;;;;3.72;1.35;;;;;;;;;;5065988;28;20622;-50
2024/03/26 09:28:16;;;;;;;3.35;1.60;;;;;;;;;;5064395;28;20046;-47
2024/03/26 09:30:42;;;;;;;2.58;1.20;;;;;;;;;;5049656;28;20082;-48
2024/03/26 09:33:08;;;;;;;3.28;1.00;;;;;;;;;;5045726;28;20392;-49
2024/03/26 09:35:34;;;;;;;4.40;1.40;;;;;;;;;;5044242;28;20037;-53
2024/03/26 09:37:59;;;;;;;4.22;1.33;;;;;;;;;;5044829;28;20044;-51
2024/03/26 09:40:25;;;;;;;7.75;1.40;;;;;;;;;;5061266;28;20463;-52
2024/03/26 09:42:56;;;;;;;2.40;1.52;;;;;;;;;;5044816;28;20524;-52
2024/03/26 09:45:23;;;;;;;4.18;1.33;;;;;;;;;;5061349;28;20036;-53
2024/03/26 09:47:50;;;;;;;3.67;1.20;;;;;;;;;;5045915;28;20041;-48
2024/03/26 09:50:18;;;;;;;4.05;1.23;;;;;;;;;;5061495;28;20037;-48
2024/03/26 09:52:47;;;;;;;3.03;1.17;;;;;;;;;;5044255;28;20045;-52
2024/03/26 09:55:13;;;;;;;;;;;;;;;;;;5045831;28;20041;-48
2024/03/26 09:57:39;;;;;;;5.35;1.70;;;;;;;;;;5045536;28;19986;-48
2024/03/26 10:00:04;;;;;;;5.25;1.40;;;;;;;;;;5045519;28;20547;-53
2024/03/26 10:02:31;;;;;;;7.95;3.03;;;;;;;;;;5043647;28;20032;-49
2024/03/26 10:04:56;;;;;;;2.50;1.30;;;;;;;;;;5045427;28;20842;-45
2024/03/26 10:07:22;;;;;;;4.68;1.60;;;;;;;;;;5045301;28;20036;-48
2024/03/26 10:09:48;;;;;;;4.75;1.52;;;;;;;;;;5044032;28;20037;-44
2024/03/26 10:12:13;;;;;;;3.85;1.90;;;;;;;;;;5061212;28;20512;-47
2024/03/26 10:14:40;;;;;;;3.28;1.67;;;;;;;;;;5028075;28;20425;-48
2024/03/26 10:17:06;;;;;;;4.85;1.60;;;;;;;;;;5045492;28;20040;-47
2024/03/26 10:19:31;;;;;;;7.05;2.00;;;;;;;;;;5045547;28;20497;-45
2024/03/26 10:21:57;;;;;;;6.70;2.00;;;;;;;;;;5045374;28;20033;-44
2024/03/26 10:24:23;;;;;;;3.70;1.60;;;;;;;;;;5045880;28;20570;-50
2024/03/26 10:26:50;;;;;;;4.93;1.73;;;;;;;;;;5061185;28;20483;-46
2024/03/26 10:29:16;;;;;;;3.95;1.60;;;;;;;;;;5044534;28;20177;-49
2024/03/26 10:31:45;;;;;;;4.28;1.73;;;;;;;;;;5045272;28;20049;-46
2024/03/26 10:34:12;;;;;;;6.03;1.80;;;;;;;;;;5060922;28;20063;-46
2024/03/26 10:36:40;;;;;;;3.45;1.65;;;;;;;;;;5043905;28;20082;-48
2024/03/26 10:39:06;;;;;;;4.80;2.78;;;;;;;;;;5045588;28;20507;-47
2024/03/26 10:41:32;;;;;;;4.00;1.80;;;;;;;;;;5045580;28;20037;-47
2024/03/26 10:43:58;;;;;;;3.83;1.63;;;;;;;;;;5045174;28;20522;-52
2024/03/26 10:46:23;;;;;;;3.85;1.65;;;;;;;;;;5045452;28;20657;-47
2024/03/26 10:48:50;;;;;;;4.47;1.63;;;;;;;;;;5048495;28;20135;-49
2024/03/26 10:51:17;;;;;;;2.88;1.40;;;;;;;;;;5064700;28;20067;-49
2024/03/26 10:53:42;;;;;;;3.53;1.55;;;;;;;;;;5050515;28;20051;-46
2024/03/26 10:56:10;;;;;;;3.97;1.38;;;;;;;;;;5045188;28;20045;-50
2024/03/26 10:58:36;;;;;;;6.30;1.80;;;;;;;;;;5043922;28;20049;-46
2024/03/26 11:01:02;;;;;;;8.40;3.25;;;;;;;;;;5045598;28;20033;-46
2024/03/26 11:03:28;;;;;;;6.05;2.03;;;;;;;;;;5043911;28;20039;-45
2024/03/26 11:05:57;;;;;;;7.53;1.88;;;;;;;;;;5043914;28;20514;-48
2024/03/26 11:08:22;;;;;;;;;;;;;;;;;;5065150;28;20127;-46
2024/03/26 11:11:02;;;;;;;12.73;4.85;;;;;;;;;;5078989;28;20359;-49
2024/03/26 11:13:30;;;;;;;8.52;3.08;;;;;;;;;;5073235;28;20028;-48
2024/03/26 11:15:56;;;;;;;15.85;4.22;;;;;;;;;;5060311;28;20480;-48
2024/03/26 11:18:32;;;;;;;10.95;5.38;;;;;;;;;;5073769;28;20407;-44
2024/03/26 11:21:10;;;;;;;8.15;5.05;;;;;;;;;;5077290;28;20020;-47
2024/03/26 11:23:37;;;;;;;12.10;4.43;;;;;;;;;;5069893;28;20037;-46
2024/03/26 11:26:03;;;;;;;10.23;5.55;;;;;;;;;;5078682;28;20195;-47
2024/03/26 11:28:32;;;;;;;24.50;12.23;;;;;;;;;;5076045;28;20032;-46
2024/03/26 11:30:58;;;;;;;8.63;3.13;;;;;;;;;;5067520;28;20157;-52
2024/03/26 11:33:27;;;;;;;12.05;6.18;;;;;;;;;;5066979;28;20036;-49
2024/03/26 11:35:54;;;;;;;9.45;4.60;;;;;;;;;;5048483;28;20068;-51
2024/03/26 11:38:20;;;;;;;9.65;5.05;;;;;;;;;;5045906;28;20504;-48
2024/03/26 11:40:49;;;;;;;9.57;4.60;;;;;;;;;;5047472;28;20040;-47
2024/03/26 11:43:15;;;;;;;9.13;2.90;;;;;;;;;;5047411;28;20124;-49
2024/03/26 11:45:41;;;;;;;7.43;2.50;;;;;;;;;;5060562;28;20111;-45
2024/03/26 11:48:07;;;;;;;6.28;2.50;;;;;;;;;;5066280;28;20504;-50
2024/03/26 11:50:33;;;;;;;3.60;2.40;;;;;;;;;;5063262;28;20036;-44
2024/03/26 11:52:59;;;;;;;8.50;3.35;;;;;;;;;;5051850;28;20484;-47
2024/03/26 11:55:25;;;;;;;11.43;3.33;;;;;;;;;;5063000;28;20084;-45
2024/03/26 11:57:52;;;;;;;5.00;1.70;;;;;;;;;;5062981;28;20033;-48
2024/03/26 12:00:18;;;;;;;6.95;2.20;;;;;;;;;;5047753;28;20040;-51
2024/03/26 12:02:44;;;;;;;5.68;2.20;;;;;;;;;;5047129;28;20302;-45
2024/03/26 12:05:10;;;;;;;9.55;2.80;;;;;;;;;;5047321;28;20530;-46
2024/03/26 12:07:36;;;;;;;6.75;2.33;;;;;;;;;;5063050;28;20040;-47
2024/03/26 12:10:03;;;;;;;5.65;2.80;;;;;;;;;;5047622;28;20041;-50
2024/03/26 12:12:31;;;;;;;;;;;;;;;;;;5047764;28;20504;-47
2024/03/26 12:14:57;;;;;;;5.80;2.20;;;;;;;;;;5047606;28;19939;-45
2024/03/26 12:17:23;;;;;;;6.68;2.25;;;;;;;;;;5047287;28;20774;-48
2024/03/26 12:19:49;;;;;;;3.25;1.98;;;;;;;;;;5047112;28;20040;-51
2024/03/26 12:22:18;;;;;;;11.75;2.45;;;;;;;;;;5047259;28;20033;-46
2024/03/26 12:24:45;;;;;;;28.10;3.78;;;;;;;;;;5046807;28;20625;-48
2024/03/26 12:27:13;;;;;;;8.50;1.88;;;;;;;;;;5045625;28;20420;-48
2024/03/26 12:29:39;;;;;;;6.82;1.90;;;;;;;;;;5046907;28;20047;-45
2024/03/26 12:32:05;;;;;;;6.10;1.88;;;;;;;;;;5029060;28;20064;-50
2024/03/26 12:34:34;;;;;;;6.07;2.10;;;;;;;;;;5045350;28;20658;-46
2024/03/26 12:37:01;;;;;;;4.95;1.85;;;;;;;;;;5047142;28;20136;-47
2024/03/26 12:39:29;;;;;;;4.28;1.50;;;;;;;;;;5047124;28;20136;-50
2024/03/26 12:41:55;;;;;;;3.22;1.52;;;;;;;;;;5047166;28;20045;-46
2024/03/26 12:44:21;;;;;;;2.55;1.60;;;;;;;;;;5047377;28;20504;-46
2024/03/26 12:46:46;;;;;;;9.60;2.30;;;;;;;;;;5045582;28;20499;-46
2024/03/26 12:49:16;;;;;;;6.32;2.20;;;;;;;;;;5053471;28;20040;-45
2024/03/26 12:51:41;;;;;;;5.35;1.92;;;;;;;;;;5065031;28;20029;-47
2024/03/26 12:54:08;;;;;;;6.32;1.80;;;;;;;;;;5045692;28;20037;-48
2024/03/26 12:56:34;;;;;;;5.07;1.48;;;;;;;;;;5045034;28;20033;-48
2024/03/26 12:59:00;;;;;;;3.78;1.60;;;;;;;;;;5053464;28;20442;-47
2024/03/26 13:01:26;;;;;;;4.13;1.75;;;;;;;;;;5076662;28;20037;-46
2024/03/26 13:03:52;;;;;;;8.18;2.08;;;;;;;;;;5056266;28;20681;-48
2024/03/26 13:06:18;;;;;;;6.03;1.80;;;;;;;;;;5076642;28;20039;-50
2024/03/26 13:08:44;;;;;;;7.10;1.73;;;;;;;;;;5058414;28;20779;-47
2024/03/26 13:11:13;;;;;;;4.60;1.52;;;;;;;;;;5057298;28;20051;-46
2024/03/26 13:13:39;;;;;;;4.07;1.45;;;;;;;;;;5073491;28;20062;-45
2024/03/26 13:16:05;;;;;;;3.28;1.30;;;;;;;;;;5057621;28;20495;-45
2024/03/26 13:18:31;;;;;;;3.55;1.50;;;;;;;;;;5058569;28;20058;-47
2024/03/26 13:20:57;;;;;;;7.13;1.45;;;;;;;;;;5077801;28;20641;-47
2024/03/26 13:23:23;;;;;;;7.35;2.33;;;;;;;;;;5071978;28;20500;-48
2024/03/26 13:25:48;;;;;;;6.97;2.28;;;;;;;;;;5068147;28;20037;-48
2024/03/26 13:28:14;;;;;;;6.70;1.60;;;;;;;;;;5053918;28;20028;-45
2024/03/26 13:30:40;;;;;;;5.55;1.83;;;;;;;;;;5071311;28;20028;-46
2024/03/26 13:33:06;;;;;;;6.28;1.33;;;;;;;;;;5080624;28;20032;-48
2024/03/26 13:35:32;;;;;;;6.28;1.50;;;;;;;;;;5065230;28;20078;-52
2024/03/26 13:37:58;;;;;;;5.15;1.55;;;;;;;;;;5085918;28;20063;-48
2024/03/26 13:40:23;;;;;;;7.20;1.42;;;;;;;;;;5075709;28;20443;-48
2024/03/26 13:42:49;;;;;;;6.68;1.40;;;;;;;;;;5073816;28;20035;-50
2024/03/26 13:45:15;;;;;;;6.63;2.25;;;;;;;;;;5071160;28;20050;-46
2024/03/26 13:47:41;;;;;;;5.88;1.92;;;;;;;;;;5071407;28;20040;-47
2024/03/26 13:50:07;;;;;;;5.57;1.55;;;;;;;;;;5071734;28;20041;-45
2024/03/26 13:52:33;;;;;;;4.68;1.33;;;;;;;;;;5069739;28;20085;-46
2024/03/26 13:55:00;;;;;;;2.70;1.48;;;;;;;;;;5073987;28;20082;-47
2024/03/26 13:57:26;;;;;;;9.13;1.48;;;;;;;;;;5072603;28;20403;-46
2024/03/26 13:59:52;;;;;;;10.68;1.75;;;;;;;;;;5084105;28;20032;-44
2024/03/26 14:02:18;;;;;;;8.18;1.70;;;;;;;;;;5073659;28;20036;-48
2024/03/26 14:04:44;;;;;;;9.10;2.58;;;;;;;;;;5071109;28;20040;-47
2024/03/26 14:07:11;;;;;;;7.78;1.40;;;;;;;;;;5082801;28;20036;-47
2024/03/26 14:09:40;;;;;;;6.40;1.63;;;;;;;;;;5084107;28;20070;-46
2024/03/26 14:12:07;;;;;;;3.35;1.40;;;;;;;;;;5084164;28;20039;-46
2024/03/26 14:14:33;;;;;;;11.43;1.65;;;;;;;;;;5084698;28;20079;-48
2024/03/26 14:16:59;;;;;;;5.43;1.60;;;;;;;;;;5063144;28;20077;-43
2024/03/26 14:19:25;;;;;;;6.63;1.60;;;;;;;;;;5076546;28;20040;-47
2024/03/26 14:21:54;;;;;;;7.35;1.92;;;;;;;;;;5056801;28;20424;-49
2024/03/26 14:24:21;;;;;;;10.10;2.13;;;;;;;;;;5080977;28;20047;-50
2024/03/26 14:26:52;;;;;;;5.05;1.45;;;;;;;;;;5055945;28;20471;-46
2024/03/26 14:29:23;;;;;;;4.65;1.77;;;;;;;;;;5061092;28;20045;-47
2024/03/26 14:31:50;;;;;;;4.72;1.80;;;;;;;;;;5050077;28;20029;-46
2024/03/26 14:34:19;;;;;;;13.38;2.65;;;;;;;;;;5072874;28;20416;-50
2024/03/26 14:36:45;;;;;;;5.57;1.63;;;;;;;;;;5072633;28;20043;-47